Time;durP1;ratioP1;P1;durP2;ratioP2;P2;SDS_P1;SDS_P2;PMS_P1;PMS_P2;Temp;Humidity;BMP_temperature;BMP_pressure;BME280_temperature;BME280_humidity;BME280_pressure;Samples;Min_cycle;Max_cycle;Signal;HPM_P1;HPM_P2
2023/03/13 00:01:12;;;;;;;0.10;0.10;;;;;;;11.37;76.19;100187.88;5113409;28;20036;-83
2023/03/13 00:03:38;;;;;;;0.10;0.10;;;;;;;11.35;75.98;100189.72;5121518;27;20030;-83
2023/03/13 00:06:05;;;;;;;0.20;0.20;;;;;;;11.41;75.93;100180.69;5127517;28;20041;-84
2023/03/13 00:08:31;;;;;;;0.55;0.55;;;;;;;11.34;76.16;100172.09;5128192;27;20040;-84
2023/03/13 00:11:01;;;;;;;0.10;0.10;;;;;;;11.37;76.43;100171.13;5127944;28;20031;-85
2023/03/13 00:13:27;;;;;;;0.10;0.10;;;;;;;11.29;76.76;100152.78;5136313;28;20020;-85
2023/03/13 00:18:38;;;;;;;0.28;0.28;;;;;;;11.35;76.43;100134.00;5056297;28;20483;-84
2023/03/13 00:21:07;;;;;;;0.10;0.10;;;;;;;11.27;77.14;100141.38;5044558;28;20400;-84
2023/03/13 00:23:34;;;;;;;0.10;0.10;;;;;;;11.28;77.14;100125.41;5049780;28;20381;-85
2023/03/13 00:26:03;;;;;;;0.10;0.10;;;;;;;11.28;77.34;100117.47;5045906;28;20030;-85
2023/03/13 00:28:31;;;;;;;0.75;0.75;;;;;;;11.16;78.18;100105.50;5044955;28;20045;-85
2023/03/13 00:33:44;;;;;;;2.00;1.90;;;;;;;11.26;78.49;100090.13;5045120;28;20397;-85
2023/03/13 00:36:14;;;;;;;0.20;0.20;;;;;;;11.26;78.54;100076.84;5051296;28;20088;-86
2023/03/13 00:38:41;;;;;;;0.10;0.10;;;;;;;11.16;78.72;100079.00;5044128;28;20018;-86
2023/03/13 00:41:11;;;;;;;0.30;0.30;;;;;;;11.24;78.40;100081.38;5030370;28;20083;-86
2023/03/13 00:43:38;;;;;;;0.10;0.10;;;;;;;11.17;79.17;100071.88;5030145;28;20108;-86
2023/03/13 00:46:05;;;;;;;0.10;0.10;;;;;;;11.25;79.41;100066.31;5032510;28;20043;-86
2023/03/13 00:48:33;;;;;;;0.20;0.20;;;;;;;11.29;79.21;100055.56;5042867;28;20040;-86
2023/03/13 00:51:00;;;;;;;0.20;0.20;;;;;;;11.37;79.46;100041.16;5029316;28;20030;-87
2023/03/13 00:53:26;;;;;;;0.82;0.82;;;;;;;11.38;78.48;100035.78;5029572;28;20124;-86
2023/03/13 00:58:30;;;;;;;0.10;0.10;;;;;;;11.43;79.54;100031.19;5047752;28;20384;-84
2023/03/13 01:01:04;;;;;;;0.10;0.10;;;;;;;11.39;78.99;100016.31;5043973;28;20032;-84
2023/03/13 01:03:30;;;;;;;0.35;0.35;;;;;;;11.42;79.44;100020.63;5048762;28;20048;-83
2023/03/13 01:05:59;;;;;;;0.20;0.20;;;;;;;11.46;79.82;100007.22;5044038;28;20033;-83
2023/03/13 01:08:26;;;;;;;0.20;0.20;;;;;;;11.48;79.59;100012.44;5047676;28;20484;-84
2023/03/13 01:10:59;;;;;;;0.10;0.10;;;;;;;11.60;79.37;100006.69;5036836;28;20084;-84
2023/03/13 01:13:26;;;;;;;2.17;0.75;;;;;;;11.61;79.37;99995.16;5037259;28;20126;-83
2023/03/13 01:15:52;;;;;;;0.20;0.20;;;;;;;11.54;80.28;99992.75;5037150;28;20030;-86
2023/03/13 01:18:18;;;;;;;0.10;0.10;;;;;;;11.59;80.04;99975.75;5045543;28;20025;-85
2023/03/13 01:20:45;;;;;;;0.13;0.13;;;;;;;11.65;80.13;99974.66;5047667;28;20155;-85
2023/03/13 01:23:11;;;;;;;0.20;0.20;;;;;;;11.63;80.35;99971.22;5046281;28;20090;-85
2023/03/13 01:25:38;;;;;;;0.10;0.10;;;;;;;11.70;80.70;99969.16;5046970;28;20013;-84
2023/03/13 01:28:05;;;;;;;0.10;0.10;;;;;;;11.72;79.76;99964.69;5048565;28;20032;-85
2023/03/13 01:30:31;;;;;;;0.10;0.10;;;;;;;11.82;79.47;99961.63;5047797;28;20143;-84
2023/03/13 01:32:57;;;;;;;0.10;0.10;;;;;;;11.87;79.34;99952.59;5050191;28;20487;-84
2023/03/13 01:35:23;;;;;;;0.20;0.20;;;;;;;11.81;80.00;99945.72;5033175;28;20038;-84
2023/03/13 01:37:49;;;;;;;0.10;0.10;;;;;;;11.85;80.08;99944.69;5033781;28;20036;-85
2023/03/13 01:40:15;;;;;;;0.57;0.57;;;;;;;11.87;79.65;99957.91;5042571;28;20033;-85
2023/03/13 01:42:51;;;;;;;0.20;0.20;;;;;;;11.93;79.60;99939.94;5044073;28;20494;-85
2023/03/13 01:45:57;;;;;;;0.40;0.40;;;;;;;12.00;80.59;99935.28;5046802;28;20083;-85
2023/03/13 01:48:30;;;;;;;0.10;0.10;;;;;;;11.94;80.11;99923.09;5044148;28;20052;-84
2023/03/13 01:51:00;;;;;;;0.10;0.10;;;;;;;11.98;80.74;99914.09;5040458;28;20026;-84
2023/03/13 01:53:28;;;;;;;0.32;0.32;;;;;;;12.00;80.26;99908.75;5046657;28;20090;-83
2023/03/13 01:55:56;;;;;;;0.32;0.32;;;;;;;12.02;80.24;99898.06;5045164;28;20025;-83
2023/03/13 01:58:22;;;;;;;0.10;0.10;;;;;;;12.11;80.78;99898.53;5049340;28;20486;-83
2023/03/13 02:00:48;;;;;;;0.15;0.15;;;;;;;12.11;80.70;99893.22;5045421;28;20037;-86
2023/03/13 02:03:19;;;;;;;0.20;0.20;;;;;;;12.07;80.48;99890.75;5041876;28;20053;-83
2023/03/13 02:05:48;;;;;;;2.70;2.50;;;;;;;12.18;80.04;99872.59;5034345;28;20029;-85
2023/03/13 02:08:20;;;;;;;4.65;2.72;;;;;;;12.18;80.83;99866.41;5043646;28;20029;-84
2023/03/13 02:10:57;;;;;;;0.20;0.20;;;;;;;12.22;80.38;99863.53;5020689;28;20034;-84
2023/03/13 02:13:24;;;;;;;0.20;0.20;;;;;;;12.22;80.69;99852.94;5026824;28;20010;-83
2023/03/13 02:15:51;;;;;;;0.10;0.10;;;;;;;12.22;80.50;99871.50;5034365;28;20037;-84
2023/03/13 02:18:17;;;;;;;0.10;0.10;;;;;;;12.25;80.85;99843.97;5027270;28;20029;-83
2023/03/13 02:20:43;;;;;;;0.20;0.20;;;;;;;12.28;80.74;99847.34;5018697;28;20061;-81
2023/03/13 02:25:57;;;;;;;0.65;0.65;;;;;;;12.35;80.59;99847.97;5098607;27;21101;-83
2023/03/13 02:28:32;;;;;;;1.50;1.42;;;;;;;12.27;81.20;99839.44;5090044;28;20024;-82
2023/03/13 02:30:59;;;;;;;0.30;0.30;;;;;;;12.39;80.74;99838.06;5106295;28;20028;-82
2023/03/13 02:33:30;;;;;;;0.10;0.10;;;;;;;12.45;80.76;99822.72;5109009;28;20056;-83
2023/03/13 02:35:59;;;;;;;0.10;0.10;;;;;;;12.48;80.62;99821.72;5099449;28;20038;-85
2023/03/13 02:38:28;;;;;;;0.10;0.10;;;;;;;12.53;80.53;99840.13;5092224;28;20028;-82
2023/03/13 02:40:56;;;;;;;0.20;0.20;;;;;;;12.54;80.63;99842.69;5090570;28;20031;-84
2023/03/13 02:46:12;;;;;;;0.80;0.80;;;;;;;12.66;80.95;99845.75;5023545;28;20411;-82
2023/03/13 02:48:42;;;;;;;0.80;0.80;;;;;;;12.70;80.90;99836.72;5040543;27;20034;-84
2023/03/13 02:51:32;;;;;;;2.50;2.40;;;;;;;12.73;80.97;99825.94;5005916;28;20026;-83
2023/03/13 02:54:05;;;;;;;0.10;0.10;;;;;;;12.77;80.40;99832.81;5009527;28;20034;-85
2023/03/13 02:56:35;;;;;;;0.20;0.20;;;;;;;12.76;80.84;99831.97;5008143;28;20040;-84
2023/03/13 02:59:01;;;;;;;0.52;0.52;;;;;;;12.79;80.49;99825.66;5020563;28;20040;-83
2023/03/13 03:01:27;;;;;;;0.10;0.10;;;;;;;12.88;80.26;99845.63;5026790;28;20045;-84
2023/03/13 03:03:53;;;;;;;0.10;0.10;;;;;;;12.89;79.82;99839.41;5016546;28;20087;-85
2023/03/13 03:06:20;;;;;;;0.10;0.10;;;;;;;12.83;80.63;99826.38;5014024;28;20029;-83
2023/03/13 03:08:46;;;;;;;0.35;0.35;;;;;;;12.90;80.16;99820.72;5028743;28;20033;-84
2023/03/13 03:11:12;;;;;;;0.22;0.22;;;;;;;12.83;80.51;99818.41;5011280;28;20037;-84
2023/03/13 03:13:38;;;;;;;0.10;0.10;;;;;;;12.87;80.39;99802.25;5015755;28;20056;-86
2023/03/13 03:16:07;;;;;;;0.32;0.22;;;;;;;12.91;80.00;99806.50;5023507;28;20457;-85
2023/03/13 03:18:34;;;;;;;0.20;0.20;;;;;;;12.86;80.17;99816.47;5020264;28;20022;-85
2023/03/13 03:21:00;;;;;;;0.13;0.13;;;;;;;13.03;80.09;99817.47;5022205;28;20061;-85
2023/03/13 03:23:26;;;;;;;0.10;0.10;;;;;;;13.01;79.97;99800.72;5017287;28;20038;-85
2023/03/13 03:25:52;;;;;;;0.15;0.15;;;;;;;12.98;79.93;99799.06;5016523;28;20018;-83
2023/03/13 03:28:18;;;;;;;0.13;0.13;;;;;;;13.01;79.62;99808.69;5026263;28;20039;-86
2023/03/13 03:30:45;;;;;;;0.22;0.22;;;;;;;13.00;79.96;99807.84;5023079;28;20030;-85
2023/03/13 03:33:11;;;;;;;0.10;0.10;;;;;;;13.05;79.95;99800.53;5022386;28;20395;-85
2023/03/13 03:35:39;;;;;;;1.52;1.42;;;;;;;13.10;79.39;99810.94;5022247;28;20117;-84
2023/03/13 03:38:05;;;;;;;0.10;0.10;;;;;;;13.05;79.67;99805.00;5023404;28;20065;-84
2023/03/13 03:40:32;;;;;;;0.13;0.13;;;;;;;13.14;79.64;99799.22;5015695;28;20609;-84
2023/03/13 03:42:58;;;;;;;8.02;3.20;;;;;;;13.13;79.57;99801.97;5027143;28;20025;-83
2023/03/13 03:45:24;;;;;;;0.10;0.10;;;;;;;13.05;80.25;99789.03;5021519;28;20026;-82
2023/03/13 03:47:50;;;;;;;0.20;0.20;;;;;;;13.09;80.27;99795.91;5019705;28;20568;-84
2023/03/13 03:50:16;;;;;;;0.10;0.10;;;;;;;13.15;79.80;99769.03;5018068;28;20044;-83
2023/03/13 03:52:43;;;;;;;0.10;0.10;;;;;;;13.18;79.90;99763.56;5005266;28;20022;-83
2023/03/13 03:55:09;;;;;;;0.10;0.10;;;;;;;13.12;79.98;99787.78;5010920;28;20086;-83
2023/03/13 03:57:35;;;;;;;0.20;0.20;;;;;;;13.18;80.18;99779.50;4996518;28;20034;-84
2023/03/13 04:00:02;;;;;;;0.10;0.10;;;;;;;13.12;80.31;99787.78;5007952;28;20235;-84
2023/03/13 04:02:28;;;;;;;0.13;0.13;;;;;;;13.14;80.44;99777.94;4992822;28;20395;-84
2023/03/13 04:04:54;;;;;;;0.10;0.10;;;;;;;13.17;80.13;99782.25;4991784;28;20453;-84
2023/03/13 04:07:20;;;;;;;0.10;0.10;;;;;;;13.25;80.28;99758.81;4996962;28;20117;-85
2023/03/13 04:09:49;;;;;;;0.17;0.17;;;;;;;13.26;79.61;99761.41;5006118;28;20030;-84
2023/03/13 04:12:15;;;;;;;0.10;0.10;;;;;;;13.23;80.44;99766.00;5003556;28;20113;-83
2023/03/13 04:14:41;;;;;;;0.10;0.10;;;;;;;13.24;80.56;99752.63;5028773;28;20012;-84
2023/03/13 04:17:07;;;;;;;0.10;0.10;;;;;;;13.14;80.82;99780.59;4999248;28;20080;-84
2023/03/13 04:19:33;;;;;;;0.63;0.63;;;;;;;13.22;80.62;99749.19;4992535;28;20453;-85
2023/03/13 04:21:59;;;;;;;0.10;0.10;;;;;;;13.27;80.33;99749.81;4994016;28;20029;-85
2023/03/13 04:24:25;;;;;;;0.10;0.10;;;;;;;13.35;80.00;99759.25;4993324;28;20510;-84
2023/03/13 04:26:52;;;;;;;0.10;0.10;;;;;;;13.27;80.74;99747.16;4997092;28;20122;-85
2023/03/13 04:29:18;;;;;;;1.98;1.88;;;;;;;13.29;80.58;99732.94;5007863;28;20038;-84
2023/03/13 04:31:44;;;;;;;5.15;0.85;;;;;;;13.29;80.38;99738.25;5005249;28;20399;-84
2023/03/13 04:34:10;;;;;;;0.10;0.10;;;;;;;13.31;80.40;99744.34;5011406;28;20124;-85
2023/03/13 04:36:36;;;;;;;0.10;0.10;;;;;;;13.29;80.20;99744.41;5007723;28;20131;-85
2023/03/13 04:39:03;;;;;;;0.17;0.17;;;;;;;13.34;80.69;99737.06;5003814;28;20030;-85
2023/03/13 04:41:29;;;;;;;0.93;0.93;;;;;;;13.42;79.80;99728.75;5032494;28;20515;-85
2023/03/13 04:43:55;;;;;;;0.10;0.10;;;;;;;13.35;79.96;99744.13;5001443;28;20038;-87
2023/03/13 04:46:21;;;;;;;0.10;0.10;;;;;;;13.34;80.13;99736.22;4996049;28;20034;-84
2023/03/13 04:48:50;;;;;;;0.10;0.10;;;;;;;13.45;79.58;99743.72;5000244;28;20045;-85
2023/03/13 04:51:16;;;;;;;0.20;0.20;;;;;;;13.40;79.59;99730.63;4992980;28;20030;-85
2023/03/13 04:53:42;;;;;;;0.25;0.25;;;;;;;13.38;79.72;99732.50;4996241;28;20050;-85
2023/03/13 04:56:10;;;;;;;1.55;1.20;;;;;;;13.38;79.74;99724.53;5000335;28;20053;-85
2023/03/13 04:58:37;;;;;;;0.10;0.10;;;;;;;13.49;78.93;99706.22;5004469;28;20037;-84
2023/03/13 05:01:03;;;;;;;5.05;1.65;;;;;;;13.44;79.08;99724.22;4999922;28;20369;-84
2023/03/13 05:03:29;;;;;;;0.32;0.32;;;;;;;13.42;78.92;99702.13;5008012;28;20053;-84
2023/03/13 05:05:55;;;;;;;38.22;1.40;;;;;;;13.42;78.74;99708.34;5003485;28;20019;-85
2023/03/13 05:08:21;;;;;;;0.10;0.10;;;;;;;13.52;78.19;99703.41;4996535;28;20031;-84
2023/03/13 05:10:47;;;;;;;0.13;0.13;;;;;;;13.42;78.21;99697.69;4997311;28;20025;-84
2023/03/13 05:13:13;;;;;;;0.10;0.10;;;;;;;13.54;77.79;99712.16;5008754;28;20021;-82
2023/03/13 05:15:39;;;;;;;0.20;0.20;;;;;;;13.57;77.18;99682.75;5019244;28;20022;-83
2023/03/13 05:18:05;;;;;;;0.10;0.10;;;;;;;13.53;77.32;99683.84;5005529;28;20041;-82
2023/03/13 05:20:31;;;;;;;0.75;0.75;;;;;;;13.59;77.20;99686.19;4996386;28;20042;-84
2023/03/13 05:22:57;;;;;;;0.10;0.10;;;;;;;13.55;77.19;99668.66;5004837;28;20587;-83
2023/03/13 05:25:23;;;;;;;0.10;0.10;;;;;;;13.63;76.49;99672.72;5021653;28;20528;-86
2023/03/13 05:27:49;;;;;;;0.10;0.10;;;;;;;13.49;75.97;99679.59;4999559;28;20534;-84
2023/03/13 05:30:16;;;;;;;0.10;0.10;;;;;;;13.81;75.33;99665.59;5010587;28;20749;-84
2023/03/13 05:32:42;;;;;;;0.10;0.10;;;;;;;13.74;74.58;99659.72;5005631;28;20030;-84
2023/03/13 05:35:08;;;;;;;0.10;0.10;;;;;;;13.74;74.32;99665.03;5010738;28;20026;-84
2023/03/13 05:37:34;;;;;;;0.75;0.75;;;;;;;13.77;74.51;99669.34;5012854;28;20563;-85
2023/03/13 05:40:00;;;;;;;0.77;0.40;;;;;;;13.65;74.17;99657.53;5010088;28;20102;-85
2023/03/13 05:42:26;;;;;;;0.10;0.10;;;;;;;13.67;73.40;99663.63;5003527;28;20032;-83
2023/03/13 05:44:52;;;;;;;0.10;0.10;;;;;;;13.80;73.54;99650.56;5011370;28;20035;-85
2023/03/13 05:47:18;;;;;;;0.10;0.10;;;;;;;13.73;72.88;99657.97;5007247;28;20601;-85
2023/03/13 05:49:44;;;;;;;0.10;0.10;;;;;;;13.80;72.99;99642.56;5011737;28;20018;-85
2023/03/13 05:52:10;;;;;;;0.50;0.50;;;;;;;13.81;72.89;99629.16;5002433;28;20042;-83
2023/03/13 05:54:37;;;;;;;0.10;0.10;;;;;;;13.84;72.24;99633.47;5004509;28;20024;-86
2023/03/13 05:57:03;;;;;;;0.10;0.10;;;;;;;13.76;72.38;99655.19;5010606;28;20041;-84
2023/03/13 05:59:29;;;;;;;0.10;0.10;;;;;;;13.92;72.02;99633.94;5008213;28;20022;-85
2023/03/13 06:01:55;;;;;;;0.10;0.10;;;;;;;13.76;72.18;99649.84;4998701;28;20035;-85
2023/03/13 06:04:21;;;;;;;0.57;0.57;;;;;;;13.89;71.97;99658.06;4998505;28;20026;-85
2023/03/13 06:06:48;;;;;;;0.10;0.10;;;;;;;13.81;72.39;99649.63;4995150;28;20435;-85
2023/03/13 06:09:14;;;;;;;0.10;0.10;;;;;;;13.89;72.04;99631.41;4998637;28;20026;-86
2023/03/13 06:11:40;;;;;;;0.10;0.10;;;;;;;13.94;71.93;99647.16;5001302;28;20044;-86
2023/03/13 06:14:06;;;;;;;0.52;0.52;;;;;;;13.86;71.64;99659.06;5037815;28;20033;-85
2023/03/13 06:16:33;;;;;;;0.30;0.30;;;;;;;13.96;71.40;99632.81;5003612;28;20578;-85
2023/03/13 06:18:59;;;;;;;0.10;0.10;;;;;;;13.83;71.74;99653.94;4997017;28;20034;-84
2023/03/13 06:21:25;;;;;;;0.13;0.13;;;;;;;13.92;71.97;99641.94;4998722;28;20034;-84
2023/03/13 06:23:51;;;;;;;2.72;2.28;;;;;;;13.89;71.94;99653.59;4992424;28;20515;-84
2023/03/13 06:26:17;;;;;;;0.10;0.10;;;;;;;13.94;71.81;99639.19;5008520;28;20491;-85
2023/03/13 06:28:43;;;;;;;0.65;0.60;;;;;;;13.86;72.60;99653.75;5003640;28;20026;-84
2023/03/13 06:31:10;;;;;;;0.30;0.30;;;;;;;13.78;73.35;99660.41;5005843;28;20072;-83
2023/03/13 06:33:36;;;;;;;0.10;0.10;;;;;;;13.81;73.32;99654.94;5002248;28;20026;-84
2023/03/13 06:36:03;;;;;;;2.40;2.30;;;;;;;13.80;73.72;99664.72;5005849;28;20475;-83
2023/03/13 06:38:30;;;;;;;0.50;0.30;;;;;;;13.73;74.40;99661.53;4997920;28;20034;-84
2023/03/13 06:40:57;;;;;;;0.10;0.10;;;;;;;13.72;74.38;99672.22;4995225;28;20045;-84
2023/03/13 06:43:23;;;;;;;0.10;0.10;;;;;;;13.76;74.33;99657.84;5008333;28;20033;-85
2023/03/13 06:45:50;;;;;;;0.75;0.75;;;;;;;13.55;76.15;99678.44;4996979;28;20041;-85
2023/03/13 06:48:16;;;;;;;0.85;0.85;;;;;;;13.52;76.20;99666.16;5002588;28;20113;-84
2023/03/13 06:50:43;;;;;;;0.30;0.30;;;;;;;13.42;76.83;99675.53;5000258;28;20023;-84
2023/03/13 06:53:25;;;;;;;0.10;0.10;;;;;;;13.51;76.99;99659.09;4994754;28;20398;-85
2023/03/13 06:55:51;;;;;;;0.10;0.10;;;;;;;13.37;77.76;99656.25;4994081;28;20034;-85
2023/03/13 06:58:18;;;;;;;0.15;0.15;;;;;;;13.31;77.80;99656.56;4994803;28;20035;-86
2023/03/13 07:00:47;;;;;;;0.10;0.10;;;;;;;13.33;77.93;99670.66;4991936;28;20026;-88
2023/03/13 07:03:13;;;;;;;0.40;0.40;;;;;;;13.34;77.83;99659.06;5000884;28;20027;-84
2023/03/13 07:05:39;;;;;;;0.10;0.10;;;;;;;13.27;78.68;99651.41;4992916;28;20025;-84
2023/03/13 07:08:05;;;;;;;0.10;0.10;;;;;;;13.28;78.26;99641.63;5004166;28;20046;-83
2023/03/13 07:10:31;;;;;;;0.10;0.10;;;;;;;13.22;78.92;99648.13;5054416;28;20034;-84
2023/03/13 07:12:57;;;;;;;0.10;0.10;;;;;;;13.26;78.34;99655.00;5000201;28;20034;-83
2023/03/13 07:15:23;;;;;;;1.20;1.20;;;;;;;13.30;78.97;99639.75;4989571;28;20023;-81
2023/03/13 07:17:50;;;;;;;0.10;0.10;;;;;;;13.23;78.79;99656.94;4999816;28;20026;-84
2023/03/13 07:20:16;;;;;;;0.10;0.10;;;;;;;13.22;78.94;99648.13;5010293;28;20103;-83
2023/03/13 07:22:42;;;;;;;0.08;0.08;;;;;;;13.17;79.19;99649.28;5004308;28;20026;-83
2023/03/13 07:25:08;;;;;;;0.40;0.40;;;;;;;13.16;79.13;99680.34;5004298;28;20037;-84
2023/03/13 07:27:35;;;;;;;0.28;0.28;;;;;;;13.24;78.33;99656.88;5006203;28;20031;-84
2023/03/13 07:30:01;;;;;;;0.10;0.10;;;;;;;13.13;79.84;99650.38;5005458;28;20487;-83
2023/03/13 07:32:31;;;;;;;0.10;0.10;;;;;;;13.06;79.96;99671.94;4999459;28;20044;-84
2023/03/13 07:34:57;;;;;;;0.10;0.10;;;;;;;13.16;79.24;99684.78;5004432;28;20105;-84
2023/03/13 07:37:24;;;;;;;0.10;0.10;;;;;;;13.14;79.83;99671.56;5000909;28;20037;-84
2023/03/13 07:39:50;;;;;;;0.20;0.20;;;;;;;13.13;79.93;99691.13;4999856;28;20026;-85
2023/03/13 07:42:16;;;;;;;0.10;0.10;;;;;;;13.22;79.54;99666.75;5009995;28;20038;-85
2023/03/13 07:44:42;;;;;;;0.10;0.10;;;;;;;13.24;78.99;99658.69;4994729;28;20062;-84
2023/03/13 07:47:08;;;;;;;0.20;0.20;;;;;;;13.28;79.14;99678.84;5005084;28;20038;-84
2023/03/13 07:49:39;;;;;;;0.43;0.43;;;;;;;13.30;79.31;99662.84;5002069;28;20034;-84
2023/03/13 07:52:06;;;;;;;0.95;0.95;;;;;;;13.31;79.21;99672.50;4997562;28;20571;-85
2023/03/13 07:54:32;;;;;;;0.10;0.10;;;;;;;13.34;78.88;99656.41;4995916;28;20030;-84
2023/03/13 07:56:58;;;;;;;0.10;0.10;;;;;;;13.46;78.53;99655.81;5007682;28;20037;-83
2023/03/13 07:59:24;;;;;;;0.10;0.10;;;;;;;13.51;77.88;99635.16;5004227;28;20031;-86
2023/03/13 08:01:50;;;;;;;0.15;0.15;;;;;;;13.71;77.48;99643.91;5005265;28;20034;-86
2023/03/13 08:04:17;;;;;;;0.30;0.30;;;;;;;13.58;77.92;99644.56;5008071;28;20018;-87
2023/03/13 08:06:43;;;;;;;0.10;0.10;;;;;;;13.57;78.20;99652.59;5000881;28;20049;-86
2023/03/13 08:09:09;;;;;;;0.10;0.10;;;;;;;13.62;77.90;99650.59;4995292;28;20034;-85
2023/03/13 08:11:37;;;;;;;0.10;0.10;;;;;;;13.71;77.96;99652.75;5003499;28;20035;-85
2023/03/13 08:14:03;;;;;;;0.10;0.10;;;;;;;13.66;78.23;99643.31;4995811;28;20037;-85
2023/03/13 08:16:33;;;;;;;0.10;0.10;;;;;;;13.64;78.24;99632.72;5002444;28;20058;-85
2023/03/13 08:19:00;;;;;;;0.10;0.10;;;;;;;13.82;77.22;99638.88;5029223;28;20033;-87
2023/03/13 08:21:29;;;;;;;0.10;0.10;;;;;;;13.80;77.13;99642.56;5011410;28;20061;-86
2023/03/13 08:23:58;;;;;;;0.10;0.10;;;;;;;13.85;77.28;99630.72;5001550;28;20403;-84
2023/03/13 08:26:26;;;;;;;0.20;0.20;;;;;;;13.79;77.06;99609.75;5005450;28;20086;-84
2023/03/13 08:28:55;;;;;;;0.10;0.10;;;;;;;13.84;76.83;99628.16;5013905;28;20034;-85
2023/03/13 08:31:26;;;;;;;0.95;0.95;;;;;;;13.88;76.60;99635.91;5008895;28;20030;-85
2023/03/13 08:33:53;;;;;;;0.87;0.87;;;;;;;13.89;76.20;99629.63;4994580;28;20396;-85
2023/03/13 08:36:23;;;;;;;0.35;0.35;;;;;;;13.84;76.51;99642.31;5004412;28;20026;-85
2023/03/13 08:38:51;;;;;;;0.10;0.10;;;;;;;13.74;76.80;99615.34;4997321;28;20087;-86
2023/03/13 08:41:20;;;;;;;0.10;0.10;;;;;;;13.79;76.48;99633.72;5005743;28;20483;-85
2023/03/13 08:43:46;;;;;;;0.10;0.10;;;;;;;13.74;76.65;99627.78;5044465;28;20030;-85
2023/03/13 08:46:13;;;;;;;0.13;0.13;;;;;;;13.75;76.62;99650.78;4994213;28;20026;-85
2023/03/13 08:48:40;;;;;;;0.10;0.10;;;;;;;13.86;76.52;99624.47;4999274;28;20030;-85
2023/03/13 08:51:10;;;;;;;0.30;0.30;;;;;;;13.89;76.06;99604.78;5020192;28;20042;-85
2023/03/13 08:53:38;;;;;;;0.20;0.20;;;;;;;13.89;75.78;99626.97;5000716;28;20139;-86
2023/03/13 08:56:05;;;;;;;0.10;0.10;;;;;;;14.03;75.90;99614.69;5005903;28;20030;-86
2023/03/13 08:58:31;;;;;;;0.30;0.30;;;;;;;14.14;75.28;99599.00;4995396;28;20022;-86
2023/03/13 09:01:03;;;;;;;0.15;0.15;;;;;;;14.30;74.28;99587.50;5003773;28;20049;-85
2023/03/13 09:03:29;;;;;;;0.10;0.10;;;;;;;14.34;74.23;99589.03;5010167;28;20102;-85
2023/03/13 09:05:58;;;;;;;0.10;0.10;;;;;;;14.56;73.62;99573.56;5011096;28;20108;-85
2023/03/13 09:08:24;;;;;;;17.30;1.05;;;;;;;14.66;72.48;99567.75;4996674;28;20492;-86
2023/03/13 09:10:59;;;;;;;0.75;0.50;;;;;;;14.94;71.08;99576.81;4997283;28;20101;-85
2023/03/13 09:13:28;;;;;;;0.10;0.10;;;;;;;15.11;70.48;99591.81;5005154;28;20037;-85
2023/03/13 09:15:56;;;;;;;0.10;0.10;;;;;;;15.20;69.45;99565.47;4992712;28;20030;-87
2023/03/13 09:18:22;;;;;;;0.10;0.10;;;;;;;15.46;68.40;99568.34;4994240;28;20026;-87
2023/03/13 09:20:48;;;;;;;0.10;0.10;;;;;;;15.45;67.89;99588.00;4992253;28;20022;-85
2023/03/13 09:23:14;;;;;;;0.20;0.20;;;;;;;15.47;67.26;99563.88;4992790;28;20491;-86
2023/03/13 09:25:40;;;;;;;0.10;0.10;;;;;;;15.58;66.82;99582.78;4997988;28;20449;-86
2023/03/13 09:28:06;;;;;;;0.10;0.10;;;;;;;15.55;65.97;99547.41;5013096;28;20038;-83
2023/03/13 09:30:32;;;;;;;0.10;0.10;;;;;;;15.57;65.36;99558.84;5011030;28;20066;-87
2023/03/13 09:32:58;;;;;;;0.10;0.10;;;;;;;15.72;65.57;99530.34;4993942;28;20038;-86
2023/03/13 09:35:27;;;;;;;0.10;0.10;;;;;;;15.82;65.57;99543.03;5001293;28;20037;-85
2023/03/13 09:37:54;;;;;;;0.93;0.93;;;;;;;15.73;65.13;99538.25;4995413;28;20073;-84
2023/03/13 09:40:22;;;;;;;0.10;0.10;;;;;;;15.85;65.25;99545.53;5007532;28;20033;-84
2023/03/13 09:42:57;;;;;;;0.10;0.10;;;;;;;15.87;64.49;99533.91;4997119;28;20072;-86
2023/03/13 09:45:40;;;;;;;0.10;0.10;;;;;;;15.77;64.15;99534.41;5004507;28;20023;-87
2023/03/13 09:48:28;;;;;;;0.75;0.75;;;;;;;15.89;64.49;99515.94;4990394;28;20035;-87
2023/03/13 09:53:57;;;;;;;0.10;0.10;;;;;;;15.91;63.95;99493.50;5160562;27;20782;-86
2023/03/13 09:56:38;;;;;;;0.10;0.10;;;;;;;16.00;63.58;99502.78;5123631;27;20031;-88
2023/03/13 09:59:15;;;;;;;0.30;0.30;;;;;;;16.05;63.41;99489.09;5128932;27;20038;-85
2023/03/13 10:01:42;;;;;;;0.10;0.10;;;;;;;15.93;62.88;99494.28;5129869;27;20055;-86
2023/03/13 10:04:39;;;;;;;0.10;0.10;;;;;;;16.07;62.98;99501.41;5121930;27;20047;-86
2023/03/13 10:07:10;;;;;;;0.10;0.10;;;;;;;15.96;62.99;99493.22;5125325;27;20023;-86
2023/03/13 10:09:38;;;;;;;0.20;0.20;;;;;;;15.96;63.11;99499.44;5123714;27;20046;-85
2023/03/13 10:12:17;;;;;;;0.20;0.20;;;;;;;15.98;62.75;99502.00;5127804;27;20024;-85
2023/03/13 10:15:24;;;;;;;2.28;0.90;;;;;;;16.01;62.72;99483.09;5120545;27;20027;-85
2023/03/13 10:17:50;;;;;;;0.10;0.10;;;;;;;16.07;62.38;99482.69;5128404;27;20088;-85
2023/03/13 10:23:20;;;;;;;0.65;0.57;;;;;;;16.29;62.31;99519.59;5066092;27;1988307;-85
2023/03/13 10:25:47;;;;;;;0.10;0.10;;;;;;;16.41;61.79;99485.88;5102349;28;20032;-85
2023/03/13 10:28:15;;;;;;;0.10;0.10;;;;;;;16.50;60.89;99485.25;5102703;28;20103;-86
2023/03/13 10:30:48;;;;;;;0.13;0.13;;;;;;;16.55;60.73;99513.47;5096820;28;20032;-85
2023/03/13 10:36:11;;;;;;;0.10;0.10;;;;;;;16.84;59.63;99490.13;5069190;28;20565;-86
2023/03/13 10:38:47;;;;;;;0.52;0.52;;;;;;;16.86;57.87;99511.44;5043334;28;20513;-86
2023/03/13 10:41:34;;;;;;;0.20;0.20;;;;;;;16.87;57.00;99491.75;5044874;28;20103;-85
2023/03/13 10:44:07;;;;;;;0.10;0.10;;;;;;;16.93;56.31;99472.63;5044698;28;20056;-86
2023/03/13 10:46:39;;;;;;;0.10;0.10;;;;;;;16.97;55.32;99471.44;5035476;28;20124;-84
2023/03/13 10:49:15;;;;;;;4.97;1.73;;;;;;;16.87;54.63;99494.41;5034065;28;20061;-84
2023/03/13 10:51:49;;;;;;;0.20;0.20;;;;;;;16.97;54.85;99466.09;5035414;28;20056;-84
2023/03/13 10:57:25;;;;;;;0.10;0.10;;;;;;;17.18;54.67;99457.56;5103766;27;20411;-85
2023/03/13 10:59:53;;;;;;;0.30;0.30;;;;;;;17.16;54.46;99475.53;5087047;28;20517;-85
2023/03/13 11:04:58;;;;;;;0.10;0.10;;;;;;;17.30;53.41;99467.41;5085836;27;1421221;-85
2023/03/13 11:12:55;;;;;;;0.10;0.10;;;;;;;17.66;52.07;99462.22;5103200;27;1221761;-85
2023/03/13 11:15:44;;;;;;;0.20;0.20;;;;;;;17.64;50.80;99454.28;5109152;28;20033;-85
2023/03/13 11:20:53;;;;;;;0.50;0.50;;;;;;;17.86;49.79;99442.88;5052951;28;20379;-85
2023/03/13 11:29:12;;;;;;;1.02;0.98;;;;;;;17.44;50.89;99466.44;5101455;27;20941;-85
2023/03/13 11:31:43;;;;;;;0.25;0.25;;;;;;;17.37;50.90;99475.84;5080001;28;20048;-85
2023/03/13 11:43:01;;;;;;;0.10;0.10;;;;;;;17.39;50.12;99484.66;5059476;28;20372;-86
2023/03/13 11:51:06;;;;;;;0.10;0.10;;;;;;;17.32;49.62;99444.06;5108214;27;20400;-86
2023/03/13 11:56:29;;;;;;;0.10;0.10;;;;;;;17.41;49.25;99480.91;5098779;27;1306974;-85
2023/03/13 12:02:03;;;;;;;0.20;0.20;;;;;;;17.66;48.65;99447.03;5056495;27;1374182;-86
2023/03/13 12:04:39;;;;;;;0.20;0.20;;;;;;;17.64;49.07;99432.88;5087550;28;20041;-86
2023/03/13 12:07:30;;;;;;;0.15;0.15;;;;;;;17.79;49.32;99433.59;5067167;28;20028;-85
2023/03/13 12:18:21;;;;;;;0.10;0.10;;;;;;;17.95;46.77;99406.56;5110806;27;1177934;-86
2023/03/13 12:24:05;;;;;;;0.10;0.10;;;;;;;18.04;45.24;99443.38;5059883;28;20811;-87
2023/03/13 12:35:21;;;;;;;0.10;0.10;;;;;;;18.39;44.43;99406.88;5130567;27;20410;-88
2023/03/13 12:40:54;;;;;;;0.00;0.00;;;;;;;18.57;45.30;99396.59;5121712;27;20406;-84
2023/03/13 12:43:28;;;;;;;0.20;0.20;;;;;;;18.55;44.92;99391.31;5122884;28;20043;-85
2023/03/13 12:46:18;;;;;;;0.10;0.10;;;;;;;18.36;44.67;99405.28;5104362;28;20024;-85
2023/03/13 12:49:03;;;;;;;0.10;0.10;;;;;;;18.29;45.05;99385.25;5082665;28;20019;-86
2023/03/13 12:51:51;;;;;;;0.10;0.10;;;;;;;18.38;45.20;99443.56;5089573;28;20028;-85
2023/03/13 12:57:35;;;;;;;0.10;0.10;;;;;;;18.56;45.02;99386.81;5091873;27;20359;-85
2023/03/13 13:00:06;;;;;;;0.20;0.20;;;;;;;18.79;45.24;99384.19;5076554;28;20040;-86
2023/03/13 13:02:32;;;;;;;0.10;0.10;;;;;;;18.84;45.30;99374.81;5070262;28;20025;-85
2023/03/13 13:05:00;;;;;;;0.10;0.10;;;;;;;18.57;45.84;99385.84;5074661;28;20025;-85
2023/03/13 13:07:30;;;;;;;0.10;0.10;;;;;;;18.20;45.77;99391.34;5081347;28;20029;-85